Time;durP1;ratioP1;P1;durP2;ratioP2;P2;SDS_P1;SDS_P2;PMS_P1;PMS_P2;Temp;Humidity;BMP_temperature;BMP_pressure;BME280_temperature;BME280_humidity;BME280_pressure;Samples;Min_cycle;Max_cycle;Signal;HPM_P1;HPM_P2
2021/04/02 00:00:11;;;;;;;19.87;7.70;;;;;;;9.22;100.00;96363.88;5014889;28;20202;-76
2021/04/02 00:02:37;;;;;;;20.77;7.80;;;;;;;9.16;100.00;96367.16;5011842;28;20206;-78
2021/04/02 00:05:05;;;;;;;18.70;8.80;;;;;;;9.19;100.00;96365.00;5009086;28;20279;-75
2021/04/02 00:07:30;;;;;;;18.03;8.93;;;;;;;9.20;100.00;96369.28;5009193;28;20205;-74
2021/04/02 00:09:56;;;;;;;22.90;9.70;;;;;;;9.24;100.00;96369.75;5009427;28;20861;-77
2021/04/02 00:12:22;;;;;;;19.37;8.13;;;;;;;9.28;100.00;96373.72;5010942;28;20232;-74
2021/04/02 00:14:48;;;;;;;19.73;8.57;;;;;;;9.24;100.00;96364.50;5008788;28;20303;-74
2021/04/02 00:17:14;;;;;;;19.90;8.87;;;;;;;9.28;100.00;96365.84;5003930;28;20195;-74
2021/04/02 00:19:40;;;;;;;17.73;7.80;;;;;;;9.24;100.00;96361.88;5009034;28;20271;-77
2021/04/02 00:22:07;;;;;;;18.63;9.00;;;;;;;9.24;100.00;96354.81;5011415;28;20293;-74
2021/04/02 00:24:33;;;;;;;17.30;8.83;;;;;;;9.30;100.00;96348.88;5009795;28;20222;-75
2021/04/02 00:26:59;;;;;;;24.17;10.23;;;;;;;9.40;100.00;96351.34;5005440;28;20260;-76
2021/04/02 00:29:25;;;;;;;26.10;10.40;;;;;;;9.32;100.00;96356.63;5012203;28;20218;-77
2021/04/02 00:31:51;;;;;;;24.00;11.00;;;;;;;9.20;100.00;96352.69;5013128;28;20730;-75
2021/04/02 00:34:17;;;;;;;22.87;10.63;;;;;;;9.17;100.00;96353.03;5007079;28;20348;-75
2021/04/02 00:36:43;;;;;;;21.63;10.53;;;;;;;9.15;100.00;96358.44;5008812;28;20284;-74
2021/04/02 00:39:11;;;;;;;27.57;11.30;;;;;;;9.16;100.00;96349.59;5009770;28;20293;-76
2021/04/02 00:41:37;;;;;;;25.43;11.47;;;;;;;9.09;100.00;96350.41;5014595;28;20205;-74
2021/04/02 00:44:03;;;;;;;25.53;10.43;;;;;;;9.12;98.46;96350.06;5012088;28;20234;-75
2021/04/02 00:46:29;;;;;;;23.47;11.00;;;;;;;9.09;99.45;96353.84;5006404;28;20217;-74
2021/04/02 00:48:55;;;;;;;29.80;12.27;;;;;;;9.09;100.00;96358.28;5008454;28;20536;-77
2021/04/02 00:51:24;;;;;;;27.37;11.77;;;;;;;8.84;100.00;96354.00;5010060;28;20259;-75
2021/04/02 00:53:51;;;;;;;31.80;11.77;;;;;;;8.75;100.00;96349.72;5008815;28;20222;-75
2021/04/02 00:56:19;;;;;;;32.63;12.37;;;;;;;8.81;100.00;96351.72;5006929;28;20198;-75
2021/04/02 00:58:45;;;;;;;30.50;11.90;;;;;;;8.84;100.00;96348.75;5010445;28;20577;-76
2021/04/02 01:01:13;;;;;;;30.90;13.07;;;;;;;8.87;100.00;96347.59;5007260;28;20225;-76
2021/04/02 01:03:39;;;;;;;27.97;11.97;;;;;;;8.96;100.00;96350.09;5009357;28;20195;-76
2021/04/02 01:06:10;;;;;;;27.90;12.03;;;;;;;8.95;100.00;96350.22;5005078;28;20202;-76
2021/04/02 01:08:37;;;;;;;26.10;12.43;;;;;;;9.01;100.00;96349.56;5005842;28;20214;-74
2021/04/02 01:11:07;;;;;;;34.43;13.10;;;;;;;8.98;100.00;96345.47;5007438;28;20198;-78
2021/04/02 01:13:37;;;;;;;31.83;13.73;;;;;;;8.93;100.00;96341.69;5008340;28;20227;-76
2021/04/02 01:16:08;;;;;;;32.53;13.23;;;;;;;8.94;100.00;96340.72;5002085;28;20204;-77
2021/04/02 01:18:38;;;;;;;33.90;13.40;;;;;;;8.81;100.00;96346.47;5011745;28;20206;-75
2021/04/02 01:21:10;;;;;;;30.30;12.73;;;;;;;8.83;99.54;96349.72;5013082;28;20611;-77
2021/04/02 01:23:45;;;;;;;34.63;14.07;;;;;;;8.71;100.00;96351.03;5009351;28;20206;-74
2021/04/02 01:26:20;;;;;;;36.40;15.17;;;;;;;8.74;100.00;96352.53;4999021;28;20936;-74
2021/04/02 01:29:11;;;;;;;36.23;15.27;;;;;;;8.68;100.00;96353.16;5007424;28;20263;-75
2021/04/02 01:31:38;;;;;;;33.23;14.40;;;;;;;8.72;100.00;96350.06;5008514;28;20199;-74
2021/04/02 01:34:06;;;;;;;39.97;15.63;;;;;;;8.74;100.00;96350.69;5013030;28;20229;-77
2021/04/02 01:36:37;;;;;;;38.80;15.37;;;;;;;8.78;100.00;96356.47;5010926;28;20240;-74
2021/04/02 01:39:06;;;;;;;36.50;15.53;;;;;;;8.76;100.00;96354.00;5009203;28;20206;-76
2021/04/02 01:41:34;;;;;;;36.30;15.20;;;;;;;8.79;99.98;96364.19;5008087;28;20441;-74
2021/04/02 01:44:01;;;;;;;34.77;14.90;;;;;;;8.85;99.88;96363.53;5008327;28;20229;-77
2021/04/02 01:46:29;;;;;;;37.80;16.53;;;;;;;8.76;100.00;96355.81;5001911;28;20210;-74
2021/04/02 01:48:58;;;;;;;41.13;16.90;;;;;;;8.71;100.00;96351.03;5008165;28;20206;-76
2021/04/02 01:51:26;;;;;;;44.80;17.30;;;;;;;8.69;100.00;96357.44;5008469;28;20225;-74
2021/04/02 01:53:56;;;;;;;38.67;15.07;;;;;;;8.67;98.60;96352.34;5005621;28;20225;-77
2021/04/02 01:56:23;;;;;;;40.23;17.63;;;;;;;8.71;99.72;96353.66;5006137;28;20221;-76
2021/04/02 01:58:50;;;;;;;52.70;20.60;;;;;;;8.81;100.00;96351.72;5005704;28;20202;-76
2021/04/02 02:01:19;;;;;;;68.43;24.10;;;;;;;8.96;100.00;96346.63;5003451;28;20207;-74
2021/04/02 02:03:49;;;;;;;51.97;21.43;;;;;;;9.10;100.00;96352.06;5003340;28;20225;-76
2021/04/02 02:06:16;;;;;;;60.23;23.07;;;;;;;9.09;98.88;96345.16;5007618;28;20271;-75
2021/04/02 02:08:43;;;;;;;52.87;21.53;;;;;;;9.05;99.44;96343.84;5005295;28;20214;-77
2021/04/02 02:11:11;;;;;;;47.10;21.13;;;;;;;9.05;99.29;96345.63;5007561;28;20213;-76
2021/04/02 02:13:59;;;;;;;44.70;19.20;;;;;;;8.98;98.33;96353.34;5003144;28;20252;-74
2021/04/02 02:16:27;;;;;;;50.00;21.07;;;;;;;9.02;99.64;96349.41;5002875;28;21400;-77
2021/04/02 02:18:57;;;;;;;52.97;22.13;;;;;;;9.14;99.41;96359.44;5009062;28;20212;-74
2021/04/02 02:21:24;;;;;;;55.30;21.77;;;;;;;9.24;98.65;96353.97;5011195;28;20248;-75
2021/04/02 02:23:50;;;;;;;56.87;21.60;;;;;;;9.23;98.46;96352.38;5005631;28;20217;-77
2021/04/02 02:26:17;;;;;;;53.73;22.70;;;;;;;9.21;97.74;96352.50;5007694;28;20203;-75
2021/04/02 02:28:43;;;;;;;53.30;21.47;;;;;;;9.11;98.28;96351.88;5007725;28;20625;-76
2021/04/02 02:31:10;;;;;;;55.03;22.67;;;;;;;9.05;98.74;96349.09;5011156;28;20202;-76
2021/04/02 02:33:37;;;;;;;52.57;20.63;;;;;;;9.11;98.27;96349.25;5009190;28;20277;-76
2021/04/02 02:36:04;;;;;;;51.80;21.93;;;;;;;9.08;98.22;96354.00;5009448;28;20197;-77
2021/04/02 02:38:31;;;;;;;55.07;21.87;;;;;;;9.12;97.29;96350.06;5009225;28;20221;-77
2021/04/02 02:40:58;;;;;;;53.13;21.30;;;;;;;9.05;97.35;96354.34;5005135;28;20202;-76
2021/04/02 02:43:25;;;;;;;54.53;22.63;;;;;;;8.96;98.07;96354.50;5007933;28;20261;-74
2021/04/02 02:45:51;;;;;;;46.90;20.97;;;;;;;8.90;98.31;96355.19;4999385;28;20206;-76
2021/04/02 02:48:17;;;;;;;52.13;22.03;;;;;;;8.83;99.14;96348.91;5009661;28;20206;-75
2021/04/02 02:50:47;;;;;;;58.23;21.43;;;;;;;8.73;97.04;96346.47;5004520;28;21144;-75
2021/04/02 02:53:16;;;;;;;53.53;21.63;;;;;;;8.72;97.98;96357.94;5005790;28;20280;-74
2021/04/02 02:55:43;;;;;;;52.57;21.70;;;;;;;8.33;98.67;96355.25;5009086;28;20231;-76
2021/04/02 02:58:10;;;;;;;55.97;21.67;;;;;;;8.02;100.00;96357.56;5008563;28;20202;-75
2021/04/02 03:00:40;;;;;;;48.17;20.93;;;;;;;8.02;100.00;96352.34;5007731;28;20199;-75
2021/04/02 03:03:13;;;;;;;53.13;21.17;;;;;;;8.03;100.00;96353.97;5013809;28;20312;-78
2021/04/02 03:05:39;;;;;;;46.07;19.87;;;;;;;8.05;99.87;96349.38;5010875;28;20225;-75
2021/04/02 03:08:08;;;;;;;56.03;22.43;;;;;;;8.02;100.00;96357.56;5013350;28;20256;-75
2021/04/02 03:10:36;;;;;;;58.67;22.83;;;;;;;8.05;100.00;96356.44;5012068;28;20804;-75
2021/04/02 03:13:04;;;;;;;49.00;20.83;;;;;;;8.02;100.00;96359.41;5013797;28;20230;-78
2021/04/02 03:15:32;;;;;;;51.43;20.63;;;;;;;8.02;100.00;96356.78;5009748;28;20230;-74
2021/04/02 03:18:03;;;;;;;45.03;18.00;;;;;;;8.02;97.18;96356.78;5013725;28;20214;-74
2021/04/02 03:20:30;;;;;;;49.17;20.60;;;;;;;7.81;99.69;96358.97;5011641;28;20202;-74
2021/04/02 03:22:57;;;;;;;47.63;22.07;;;;;;;7.71;100.00;96370.56;5013292;28;20252;-74
2021/04/02 03:25:26;;;;;;;50.20;21.30;;;;;;;7.70;100.00;96372.38;5012722;28;20594;-78
2021/04/02 03:27:54;;;;;;;45.67;20.23;;;;;;;7.62;100.00;96374.91;5012799;28;20260;-74
2021/04/02 03:30:22;;;;;;;43.80;18.87;;;;;;;7.66;98.25;96365.78;5011723;28;20206;-75
2021/04/02 03:32:51;;;;;;;55.47;20.03;;;;;;;7.53;100.00;96370.59;5010907;28;20222;-74
2021/04/02 03:35:19;;;;;;;50.13;20.73;;;;;;;7.50;100.00;96373.56;5008904;28;20218;-74
2021/04/02 03:37:49;;;;;;;46.23;19.87;;;;;;;7.34;100.00;96376.09;5014413;28;20202;-77
2021/04/02 03:40:16;;;;;;;49.70;20.23;;;;;;;7.35;100.00;96369.03;5009902;28;20198;-76
2021/04/02 03:42:45;;;;;;;44.90;18.60;;;;;;;7.30;100.00;96368.66;5013948;28;20240;-74
2021/04/02 03:45:14;;;;;;;44.53;18.43;;;;;;;7.11;98.78;96370.66;5012678;28;20737;-76
2021/04/02 03:47:42;;;;;;;48.27;19.33;;;;;;;7.13;98.49;96372.16;5012213;28;20194;-78
2021/04/02 03:50:11;;;;;;;48.97;19.97;;;;;;;6.99;100.00;96375.31;5012387;28;20203;-75
2021/04/02 03:52:41;;;;;;;55.43;22.10;;;;;;;6.90;100.00;96380.66;5011696;28;20222;-77
2021/04/02 03:55:12;;;;;;;54.60;20.97;;;;;;;6.77;100.00;96375.81;5011932;28;20280;-75
2021/04/02 03:57:40;;;;;;;52.77;21.07;;;;;;;6.78;100.00;96376.63;5012443;28;20217;-74
2021/04/02 04:00:10;;;;;;;53.93;22.00;;;;;;;6.84;100.00;96381.25;5012320;28;20210;-76
2021/04/02 04:02:38;;;;;;;52.20;20.67;;;;;;;6.96;100.00;96380.88;5009677;28;20198;-78
2021/04/02 04:05:05;;;;;;;47.97;21.10;;;;;;;6.93;100.00;96386.41;5011457;28;20222;-78
2021/04/02 04:07:33;;;;;;;55.93;21.97;;;;;;;6.84;100.00;96376.03;5011259;28;20206;-74
2021/04/02 04:10:00;;;;;;;50.37;20.97;;;;;;;6.80;100.00;96380.72;5011761;28;20206;-74
2021/04/02 04:12:28;;;;;;;43.57;19.37;;;;;;;6.86;100.00;96381.91;5007462;28;20262;-78
2021/04/02 04:14:56;;;;;;;52.20;19.43;;;;;;;6.91;100.00;96379.66;5008422;28;20734;-74
2021/04/02 04:17:23;;;;;;;45.57;19.50;;;;;;;6.82;100.00;96383.19;5009304;28;20215;-74
2021/04/02 04:19:52;;;;;;;51.57;20.67;;;;;;;6.83;100.00;96384.84;5011268;28;20217;-74
2021/04/02 04:22:24;;;;;;;45.20;19.53;;;;;;;6.74;100.00;96386.56;5011002;28;20215;-77
2021/04/02 04:24:52;;;;;;;46.73;20.80;;;;;;;6.64;100.00;96384.19;5011525;28;21164;-75
2021/04/02 04:27:18;;;;;;;56.50;21.60;;;;;;;6.52;100.00;96385.34;5009972;28;20198;-74
2021/04/02 04:29:50;;;;;;;48.40;20.50;;;;;;;6.54;100.00;96386.84;5014085;28;20209;-75
2021/04/02 04:32:18;;;;;;;42.00;19.43;;;;;;;6.66;100.00;96381.25;5010499;28;20234;-74
2021/04/02 04:34:45;;;;;;;45.80;20.57;;;;;;;6.60;100.00;96381.03;5013237;28;20219;-78
2021/04/02 04:37:14;;;;;;;46.77;19.77;;;;;;;6.45;100.00;96374.66;5012726;28;20202;-77
2021/04/02 04:39:43;;;;;;;50.13;20.50;;;;;;;6.32;100.00;96384.66;5013096;28;20269;-74
2021/04/02 04:42:12;;;;;;;52.80;20.47;;;;;;;6.45;100.00;96379.09;5008750;28;20585;-74
2021/04/02 04:44:40;;;;;;;41.73;19.50;;;;;;;6.46;100.00;96385.97;5012740;28;20240;-76
2021/04/02 04:47:06;;;;;;;43.10;19.03;;;;;;;6.35;100.00;96388.78;5012084;28;20202;-74
2021/04/02 04:49:33;;;;;;;48.27;19.90;;;;;;;6.24;100.00;96387.22;5010074;28;20327;-76
2021/04/02 04:52:01;;;;;;;55.43;22.27;;;;;;;6.23;100.00;96385.56;5009531;28;21121;-76
2021/04/02 04:54:32;;;;;;;41.80;17.83;;;;;;;6.09;100.00;96391.28;5012967;28;20264;-73
2021/04/02 04:56:59;;;;;;;45.63;18.17;;;;;;;6.06;100.00;96385.53;5010931;28;20576;-74
2021/04/02 04:59:27;;;;;;;44.50;19.40;;;;;;;6.23;100.00;96375.09;5008965;28;20210;-75
2021/04/02 05:01:55;;;;;;;53.40;20.43;;;;;;;6.35;100.00;96381.78;5008421;28;20234;-74
2021/04/02 05:04:22;;;;;;;45.13;20.23;;;;;;;6.35;100.00;96379.16;5010509;28;20219;-78
2021/04/02 05:06:55;;;;;;;50.20;19.13;;;;;;;6.32;100.00;96389.09;5012834;28;20202;-74
2021/04/02 05:09:24;;;;;;;44.47;19.43;;;;;;;6.20;100.00;96393.72;5012189;28;20216;-75
2021/04/02 05:11:53;;;;;;;52.33;21.20;;;;;;;6.22;100.00;96391.78;5011100;28;20197;-74
2021/04/02 05:14:20;;;;;;;47.87;18.80;;;;;;;6.10;100.00;96395.56;5009277;28;20234;-74
2021/04/02 05:16:47;;;;;;;49.00;19.13;;;;;;;6.04;100.00;96401.34;5006508;28;20213;-74
2021/04/02 05:19:17;;;;;;;47.93;19.87;;;;;;;6.04;100.00;96400.53;5008085;28;20265;-75
2021/04/02 05:21:43;;;;;;;49.50;19.63;;;;;;;6.08;100.00;96397.50;5010809;28;20229;-74
2021/04/02 05:24:10;;;;;;;44.90;19.10;;;;;;;6.11;100.00;96399.00;5006568;28;20819;-76
2021/04/02 05:26:36;;;;;;;48.93;20.23;;;;;;;6.12;100.00;96401.47;5011695;28;20244;-77
2021/04/02 05:29:04;;;;;;;47.53;18.83;;;;;;;6.15;100.00;96408.22;5009376;28;20944;-77
2021/04/02 05:31:30;;;;;;;48.43;20.67;;;;;;;6.18;100.00;96400.06;5009374;28;20225;-73
2021/04/02 05:33:56;;;;;;;61.43;22.83;;;;;;;6.04;100.00;96410.19;5005310;28;20222;-77
2021/04/02 05:36:23;;;;;;;70.60;26.17;;;;;;;6.14;100.00;96409.16;5007696;28;20230;-74
2021/04/02 05:38:49;;;;;;;54.37;23.40;;;;;;;6.35;100.00;96413.19;5008785;28;20580;-75
2021/04/02 05:41:19;;;;;;;51.83;22.47;;;;;;;6.45;100.00;96410.50;5003828;28;20206;-73
2021/04/02 05:43:48;;;;;;;57.17;22.63;;;;;;;6.60;100.00;96412.44;5009287;28;20229;-75
2021/04/02 05:46:16;;;;;;;60.60;22.47;;;;;;;6.79;100.00;96409.69;5007703;28;20198;-75
2021/04/02 05:48:44;;;;;;;54.33;23.00;;;;;;;6.99;100.00;96411.19;5005447;28;20216;-73
2021/04/02 05:51:11;;;;;;;54.37;21.70;;;;;;;7.24;100.00;96418.25;5005644;28;20664;-73
2021/04/02 05:53:38;;;;;;;51.93;21.13;;;;;;;7.24;100.00;96415.63;5005068;28;21517;-73
2021/04/02 05:56:05;;;;;;;51.47;22.07;;;;;;;7.40;100.00;96427.06;5004958;28;20218;-75
2021/04/02 05:58:32;;;;;;;48.70;20.53;;;;;;;7.58;100.00;96426.03;5008363;28;20213;-74
2021/04/02 06:00:58;;;;;;;57.13;21.80;;;;;;;7.67;100.00;96427.72;5008540;28;20212;-75
2021/04/02 06:03:25;;;;;;;47.27;18.77;;;;;;;7.73;100.00;96427.13;5006354;28;20198;-74
2021/04/02 06:05:51;;;;;;;47.50;18.17;;;;;;;7.73;100.00;96428.94;5004698;28;20214;-75
2021/04/02 06:08:18;;;;;;;43.50;18.37;;;;;;;7.70;100.00;96424.81;5006140;28;20580;-74
2021/04/02 06:10:44;;;;;;;45.23;17.40;;;;;;;7.78;100.00;96417.00;5004164;28;20719;-73
2021/04/02 06:13:10;;;;;;;36.13;15.90;;;;;;;7.75;100.00;96430.44;5005462;28;20218;-75
2021/04/02 06:15:37;;;;;;;44.10;15.87;;;;;;;7.71;100.00;96423.81;5004033;28;20221;-76
2021/04/02 06:18:05;;;;;;;29.87;14.20;;;;;;;7.73;100.00;96434.19;5008447;28;20202;-73
2021/04/02 06:20:35;;;;;;;32.47;14.47;;;;;;;7.87;100.00;96431.78;5005893;28;20199;-74
2021/04/02 06:23:09;;;;;;;34.40;15.47;;;;;;;7.95;100.00;96427.41;5003839;28;20209;-74
2021/04/02 06:25:38;;;;;;;35.93;14.67;;;;;;;8.06;100.00;96435.00;5004034;28;20225;-74
2021/04/02 06:28:12;;;;;;;28.90;13.67;;;;;;;8.07;100.00;96433.19;5005481;28;20206;-73
2021/04/02 06:30:41;;;;;;;28.43;13.50;;;;;;;8.27;100.00;96424.13;5004771;28;20581;-76
2021/04/02 06:33:08;;;;;;;29.97;12.47;;;;;;;8.32;100.00;96432.38;5005156;28;20234;-75
2021/04/02 06:35:40;;;;;;;27.03;12.47;;;;;;;8.16;100.00;96427.88;5003445;28;20222;-73
2021/04/02 06:38:06;;;;;;;24.63;12.13;;;;;;;8.11;100.00;96426.69;5012209;28;20224;-74
2021/04/02 06:40:32;;;;;;;24.33;11.37;;;;;;;8.17;100.00;96421.66;5003006;28;20202;-72
2021/04/02 06:43:00;;;;;;;27.07;12.03;;;;;;;8.29;100.00;96424.81;5001872;28;20317;-73
2021/04/02 06:45:27;;;;;;;26.07;12.30;;;;;;;8.33;100.00;96423.50;5005994;28;20222;-75
2021/04/02 06:48:07;;;;;;;24.57;11.90;;;;;;;8.39;100.00;96422.84;5004071;28;20234;-73
2021/04/02 06:50:33;;;;;;;25.30;10.63;;;;;;;8.49;100.00;96432.28;5004992;28;20214;-73
2021/04/02 06:53:02;;;;;;;26.47;11.03;;;;;;;8.58;99.17;96432.13;5003409;28;20229;-75
2021/04/02 06:55:30;;;;;;;23.97;10.70;;;;;;;8.48;100.00;96432.41;5003852;28;20232;-76
2021/04/02 06:57:58;;;;;;;20.63;10.53;;;;;;;8.28;100.00;96429.22;5005292;28;20248;-73
2021/04/02 07:00:26;;;;;;;26.87;11.17;;;;;;;8.29;100.00;96432.69;5010583;28;20236;-73
2021/04/02 07:02:53;;;;;;;21.13;10.93;;;;;;;8.22;100.00;96421.16;5004219;28;20198;-74
2021/04/02 07:05:20;;;;;;;24.27;12.13;;;;;;;8.24;100.00;96429.72;5005267;28;20222;-73
2021/04/02 07:07:52;;;;;;;21.97;10.73;;;;;;;8.14;100.00;96436.88;5004111;28;20964;-75
2021/04/02 07:10:19;;;;;;;25.10;11.60;;;;;;;8.13;100.00;96432.56;5005234;28;20253;-73
2021/04/02 07:12:50;;;;;;;24.40;10.40;;;;;;;8.26;100.00;96435.59;5008664;28;20236;-73
2021/04/02 07:15:17;;;;;;;25.77;11.53;;;;;;;8.36;100.00;96436.31;5006107;28;21236;-76
2021/04/02 07:17:44;;;;;;;20.93;10.10;;;;;;;8.57;100.00;96438.34;5008377;28;20211;-75
2021/04/02 07:20:11;;;;;;;24.83;11.30;;;;;;;8.75;100.00;96431.16;5004440;28;20206;-73
2021/04/02 07:22:39;;;;;;;25.00;11.37;;;;;;;8.89;99.18;96429.72;5004540;28;20205;-75
2021/04/02 07:25:06;;;;;;;25.80;11.73;;;;;;;9.01;97.96;96429.22;5003583;28;20226;-74
2021/04/02 07:27:34;;;;;;;25.20;11.30;;;;;;;8.97;98.83;96430.53;5002720;28;20268;-73
2021/04/02 07:30:03;;;;;;;24.70;12.00;;;;;;;8.90;99.38;96436.63;5007538;28;20198;-73
2021/04/02 07:32:31;;;;;;;23.50;11.60;;;;;;;8.88;98.90;96434.16;5004119;28;20202;-75
2021/04/02 07:34:57;;;;;;;23.00;11.00;;;;;;;9.08;97.38;96433.69;5007881;28;20264;-73
2021/04/02 07:37:23;;;;;;;32.17;11.37;;;;;;;9.18;96.82;96428.28;5004988;28;20202;-75
2021/04/02 07:39:54;;;;;;;27.90;11.90;;;;;;;9.31;99.23;96434.69;5007325;28;20246;-73
2021/04/02 07:42:20;;;;;;;29.77;12.17;;;;;;;9.34;98.71;96444.88;5005968;28;20759;-73
2021/04/02 07:44:53;;;;;;;27.67;11.30;;;;;;;9.45;97.68;96438.47;5004259;28;20242;-73
2021/04/02 07:47:21;;;;;;;22.07;11.20;;;;;;;9.30;98.70;96435.66;5005183;28;20203;-73
2021/04/02 07:49:57;;;;;;;25.73;10.87;;;;;;;9.34;97.31;96430.91;5011280;28;20225;-76
2021/04/02 07:52:30;;;;;;;21.93;11.00;;;;;;;9.28;97.14;96434.22;5004792;28;20202;-73
2021/04/02 07:55:10;;;;;;;20.87;10.70;;;;;;;9.37;100.00;96433.22;5002199;28;20280;-74
2021/04/02 07:57:53;;;;;;;24.33;11.27;;;;;;;9.52;97.17;96444.69;5006124;28;20212;-75
2021/04/02 08:00:24;;;;;;;28.30;11.37;;;;;;;9.35;98.39;96446.50;5008435;28;20211;-73
2021/04/02 08:03:09;;;;;;;24.60;11.73;;;;;;;9.40;100.00;96446.03;5010657;28;20202;-73
2021/04/02 08:05:36;;;;;;;23.80;10.50;;;;;;;9.29;97.94;96443.72;5005969;28;20226;-73
2021/04/02 08:08:02;;;;;;;27.10;12.07;;;;;;;9.54;100.00;96445.38;5006865;28;20223;-73
2021/04/02 08:10:28;;;;;;;27.67;12.67;;;;;;;9.54;100.00;96454.06;5007076;28;20206;-74
2021/04/02 08:12:54;;;;;;;24.33;11.53;;;;;;;9.47;98.46;96452.25;5006887;28;20491;-73
2021/04/02 08:15:23;;;;;;;22.53;11.57;;;;;;;9.34;99.14;96446.69;5010680;28;20637;-73
2021/04/02 08:17:49;;;;;;;24.60;11.73;;;;;;;9.46;97.32;96445.38;5006899;28;20202;-73
2021/04/02 08:20:17;;;;;;;23.63;11.90;;;;;;;9.79;98.94;96450.44;5007807;28;20202;-73
2021/04/02 08:22:47;;;;;;;26.97;12.67;;;;;;;10.15;96.75;96447.25;5010185;28;20202;-73
2021/04/02 08:25:15;;;;;;;24.50;12.33;;;;;;;10.22;92.34;96450.88;5007678;28;20214;-73
2021/04/02 08:27:43;;;;;;;28.37;12.00;;;;;;;10.13;96.27;96448.41;5009881;28;20201;-74
2021/04/02 08:30:13;;;;;;;20.53;11.40;;;;;;;10.13;91.99;96454.50;5002759;28;20225;-74
2021/04/02 08:32:45;;;;;;;29.83;12.53;;;;;;;10.17;93.56;96447.91;5009941;28;20979;-74
2021/04/02 08:35:14;;;;;;;22.90;11.83;;;;;;;10.30;94.84;96450.84;5008314;28;20225;-73
2021/04/02 08:37:55;;;;;;;23.23;11.70;;;;;;;9.91;94.53;96454.34;5007284;28;20202;-73
2021/04/02 08:40:21;;;;;;;27.10;11.77;;;;;;;9.87;94.77;96459.13;5008491;28;20557;-73
2021/04/02 08:42:49;;;;;;;26.73;12.67;;;;;;;10.01;94.35;96455.03;5009526;28;20209;-73
2021/04/02 08:45:19;;;;;;;28.50;12.60;;;;;;;10.21;91.61;96457.13;5008613;28;20275;-73
2021/04/02 08:47:46;;;;;;;29.40;12.63;;;;;;;10.32;93.61;96453.28;5006956;28;20202;-74
2021/04/02 08:50:13;;;;;;;30.83;13.73;;;;;;;10.49;94.05;96450.44;4995171;28;20206;-74
2021/04/02 08:52:39;;;;;;;25.13;12.40;;;;;;;10.60;93.64;96455.31;4999178;28;20198;-73
2021/04/02 08:55:08;;;;;;;26.30;13.10;;;;;;;10.54;93.14;96445.47;5006101;28;20259;-76
2021/04/02 08:57:36;;;;;;;26.50;12.67;;;;;;;10.67;92.59;96448.38;5006527;28;20214;-75
2021/04/02 09:00:06;;;;;;;31.67;13.93;;;;;;;10.87;91.93;96449.56;5005014;28;20688;-74
2021/04/02 09:02:32;;;;;;;28.53;13.60;;;;;;;10.75;92.66;96443.06;5009638;28;20221;-73
2021/04/02 09:05:02;;;;;;;31.53;13.37;;;;;;;10.86;90.92;96445.28;5009648;28;20221;-75
2021/04/02 09:07:28;;;;;;;30.63;13.67;;;;;;;11.02;92.01;96438.09;5006524;28;20207;-74
2021/04/02 09:09:54;;;;;;;30.63;13.87;;;;;;;10.70;94.09;96443.56;5006400;28;20202;-73
2021/04/02 09:12:21;;;;;;;28.80;13.97;;;;;;;10.85;92.49;96447.09;5007942;28;20202;-73
2021/04/02 09:14:49;;;;;;;32.00;15.33;;;;;;;10.83;93.67;96445.63;5009433;28;20230;-75
2021/04/02 09:17:19;;;;;;;32.40;16.00;;;;;;;11.05;90.95;96437.75;5005658;28;20217;-73
2021/04/02 09:19:46;;;;;;;30.73;15.47;;;;;;;11.06;88.57;96440.22;5005782;28;20580;-75
2021/04/02 09:22:14;;;;;;;34.47;16.00;;;;;;;11.21;87.57;96438.44;5006294;28;20209;-73
2021/04/02 09:24:41;;;;;;;34.23;16.73;;;;;;;11.34;89.46;96438.72;5015910;28;20275;-73
2021/04/02 09:27:09;;;;;;;38.07;17.17;;;;;;;11.43;90.95;96429.72;5000809;28;20203;-76
2021/04/02 09:29:35;;;;;;;30.47;15.13;;;;;;;11.79;85.94;96428.91;4997754;28;20201;-75
2021/04/02 09:32:02;;;;;;;30.23;15.27;;;;;;;11.87;89.20;96428.03;5005302;28;20199;-74
2021/04/02 09:34:29;;;;;;;30.63;14.97;;;;;;;11.80;86.76;96429.72;5007715;28;20635;-74
2021/04/02 09:36:56;;;;;;;26.15;15.20;;;;;;;11.62;87.49;96421.31;5008455;28;20202;-74
2021/04/02 09:39:25;;;;;;;33.97;16.55;;;;;;;11.69;85.44;96427.53;5001111;28;20210;-73
2021/04/02 09:41:52;;;;;;;33.57;15.77;;;;;;;11.49;85.64;96426.34;5009220;28;20198;-73
2021/04/02 09:44:20;;;;;;;34.97;17.53;;;;;;;11.31;87.91;96431.13;5007127;28;20595;-75
2021/04/02 09:46:48;;;;;;;32.77;15.83;;;;;;;11.01;89.18;96432.00;5005290;28;20237;-72
2021/04/02 09:49:16;;;;;;;41.37;18.17;;;;;;;11.16;93.21;96434.69;5006023;28;20203;-75
2021/04/02 09:51:43;;;;;;;33.53;16.70;;;;;;;11.18;87.47;96428.25;5009817;28;20766;-75
2021/04/02 09:54:10;;;;;;;32.20;16.10;;;;;;;11.12;90.79;96436.84;5002231;28;20222;-73
2021/04/02 09:56:38;;;;;;;40.70;16.90;;;;;;;11.14;87.64;96426.16;5001671;28;20267;-76
2021/04/02 09:59:04;;;;;;;33.03;16.20;;;;;;;11.28;90.23;96426.22;5011741;28;20213;-77
2021/04/02 10:01:31;;;;;;;34.57;16.40;;;;;;;11.50;91.13;96428.03;5007689;28;20206;-76
2021/04/02 10:03:57;;;;;;;35.43;16.03;;;;;;;11.60;85.41;96416.22;5008159;28;20214;-73
2021/04/02 10:06:23;;;;;;;34.17;15.50;;;;;;;11.65;87.80;96411.22;5003526;28;20210;-76
2021/04/02 10:08:49;;;;;;;31.17;15.57;;;;;;;11.93;87.70;96414.13;4982741;28;20205;-77
2021/04/02 10:11:15;;;;;;;32.03;15.87;;;;;;;12.16;88.65;96414.84;5007330;28;20207;-74
2021/04/02 10:13:42;;;;;;;32.23;17.03;;;;;;;12.27;86.60;96413.38;5008101;28;20221;-73
2021/04/02 10:16:09;;;;;;;34.20;15.13;;;;;;;12.31;86.14;96406.72;5003455;28;20206;-74
2021/04/02 10:18:36;;;;;;;32.90;15.37;;;;;;;12.30;82.83;96405.09;5005745;28;20301;-74
2021/04/02 10:21:04;;;;;;;31.83;15.05;;;;;;;12.12;81.66;96408.28;5001774;28;20298;-73
2021/04/02 10:23:30;;;;;;;32.17;15.93;;;;;;;11.96;81.50;96408.47;5007882;28;20205;-77
2021/04/02 10:25:56;;;;;;;33.92;15.90;;;;;;;12.05;83.01;96407.38;5005844;28;20213;-74
2021/04/02 10:28:23;;;;;;;28.17;14.77;;;;;;;11.98;80.45;96417.03;5006633;28;20202;-73
2021/04/02 10:30:51;;;;;;;28.23;14.27;;;;;;;12.01;79.33;96411.38;5007580;28;20228;-77
2021/04/02 10:33:17;;;;;;;28.87;14.63;;;;;;;11.93;81.25;96403.56;5005456;28;20233;-72
2021/04/02 10:35:43;;;;;;;30.07;14.87;;;;;;;11.76;82.49;96407.34;5003594;28;20221;-77
2021/04/02 10:38:10;;;;;;;25.73;14.43;;;;;;;11.77;82.66;96404.53;5009454;28;20868;-73
2021/04/02 10:40:36;;;;;;;28.50;14.57;;;;;;;11.93;82.79;96407.00;5003769;28;20971;-74
2021/04/02 10:43:02;;;;;;;27.53;14.47;;;;;;;12.16;78.82;96396.38;5004066;28;20969;-75
2021/04/02 10:45:28;;;;;;;27.35;14.38;;;;;;;12.21;84.64;96394.81;5007645;28;20226;-75
2021/04/02 10:47:55;;;;;;;28.33;13.90;;;;;;;12.17;76.71;96394.34;5003336;28;20206;-76
2021/04/02 10:50:22;;;;;;;27.53;13.50;;;;;;;12.72;74.65;96391.19;5007651;28;20202;-75
2021/04/02 10:52:47;;;;;;;26.37;14.10;;;;;;;12.85;78.29;96392.97;5009656;28;20258;-75
2021/04/02 10:55:14;;;;;;;25.40;13.07;;;;;;;12.76;74.66;96394.06;5005528;28;21173;-75
2021/04/02 10:57:40;;;;;;;27.23;14.20;;;;;;;12.51;74.06;96391.13;5005325;28;20620;-77
2021/04/02 11:00:08;;;;;;;24.92;12.52;;;;;;;12.43;72.14;96402.59;5005480;28;20210;-77
2021/04/02 11:02:34;;;;;;;24.77;12.47;;;;;;;12.33;71.64;96386.25;5005672;28;20194;-73
2021/04/02 11:05:02;;;;;;;23.07;12.13;;;;;;;12.13;71.46;96396.72;5006630;28;20232;-76
2021/04/02 11:07:29;;;;;;;22.90;12.52;;;;;;;12.27;75.39;96381.69;5009236;28;20209;-78
2021/04/02 11:09:54;;;;;;;22.57;11.47;;;;;;;12.69;73.85;96397.66;5002467;28;20214;-73
2021/04/02 11:12:24;;;;;;;24.27;11.67;;;;;;;13.06;71.32;96384.25;5004153;28;20290;-74
2021/04/02 11:14:50;;;;;;;22.23;11.90;;;;;;;13.33;66.10;96388.78;5002954;28;20230;-75
2021/04/02 11:17:16;;;;;;;21.98;12.60;;;;;;;13.41;67.79;96384.19;5005213;28;20211;-78
2021/04/02 11:19:42;;;;;;;23.15;11.13;;;;;;;13.26;68.52;96390.56;5007831;28;20358;-78
2021/04/02 11:22:09;;;;;;;21.98;11.98;;;;;;;13.57;73.95;96383.91;5006910;28;20610;-77